Continental Highway — H9LY — position and weather

sailwx.info

Track history (hours):
 
Tides and Currents Weather Stations Pressure Air Temp Water Temp Dewpoint Dewpoint Depression Visibility Wind Speed Wind Dir Waves Ship Positions

Continental Highway

Last reported at 2016-Jun-16 08:26 UTC. Time now 2016-Jun-26 20:58 UTC.
Position N 22°05' E 114°34'.
Warning: this ship's position is 10 days out of date.

Length 199.9 m; beam 32.2 m.

Type: Cargo ship. MMSI: 351223000.

Date/timePositionNaut miles runAvg speedWind from/ knotsBaromVisibWave heightAir tempDewpointWater temp
2016-Jun-16 08:26N 22°05' E 114°34'1516.4
2016-Jun-16 07:33N 22°07' E 114°19'1511.8
2016-Jun-16 06:17N 22°16' E 114°06'1 0.6
2016-Jun-16 04:31N 22°17' E 114°05'0 0.0
2016-Jun-15 23:31N 22°17' E 114°05'0 0.0
2016-Jun-15 22:31N 22°17' E 114°05'3 2.7
2016-Jun-15 21:34N 22°19' E 114°06'1 1.2
2016-Jun-15 20:33N 22°20' E 114°08'0 0.0
2016-Jun-15 19:33N 22°20' E 114°08'0 0.0
2016-Jun-15 18:33N 22°20' E 114°08'7 5.0
2016-Jun-15 17:12N 22°13' E 114°10'6 8.1
2016-Jun-15 16:28N 22°08' E 114°14'1514.9
2016-Jun-15 15:26N 22°06' E 113°58'1011.7
2016-Jun-15 14:33N 22°10' E 113°47'1211.6
2016-Jun-15 13:33N 22°22' E 113°47'25 8.2
2016-Jun-15 10:29N 22°45' E 113°38'6 6.3
2016-Jun-15 09:33N 22°50' E 113°35'9 8.9
2016-Jun-15 08:33N 22°59' E 113°32'2 1.8
2016-Jun-15 07:31N 23°01' E 113°32'0 0.0
2016-Jun-15 06:31N 23°01' E 113°32'0 0.0
2016-Jun-15 03:19N 23°01' E 113°32'0 0.0
2016-Jun-15 02:31N 23°01' E 113°32'0 0.0
2016-Jun-15 01:31N 23°01' E 113°32'6 5.9
2016-Jun-15 00:34N 22°55' E 113°34'11 9.8
2016-Jun-14 23:27N 22°45' E 113°39'1812.9
2016-Jun-14 22:05N 22°29' E 113°45'814.9
2016-Jun-14 21:33N 22°21' E 113°47'1313.1
2016-Jun-14 20:33N 22°08' E 113°48'  
2016-Jun-12 10:33N 31°15' E 121°59'1212.3
2016-Jun-12 09:32N 31°19' E 121°45'4 0.1
2016-Jun-11 08:29N 31°20' E 121°41'9 9.3
2016-Jun-11 07:33N 31°17' E 121°51'1111.0
2016-Jun-11 06:33N 31°14' E 122°03'40711.5
2016-Jun-09 19:11N 37°03' E 126°17'3 1.0
2016-Jun-09 16:09N 37°04' E 126°13'0 0.0
2016-Jun-09 15:09N 37°04' E 126°13'0 0.0
2016-Jun-09 14:15N 37°04' E 126°13'90 2.2
2016-Jun-07 21:09N 37°21' E 124°22'916.2
2016-Jun-07 20:33N 37°25' E 124°11'2116.8
2016-Jun-07 19:18N 37°34' E 123°47'1417.3
2016-Jun-07 18:30N 37°40' E 123°30'5317.1
2016-Jun-07 15:23N 38°01' E 122°29'1716.2
2016-Jun-07 14:20N 38°07' E 122°09'1616.2
2016-Jun-07 13:21N 38°13' E 121°50'1316.3
2016-Jun-07 12:33N 38°18' E 121°34'1716.8
2016-Jun-07 11:32N 38°25' E 121°14'1616.2
2016-Jun-07 10:33N 38°32' E 120°56'1612.4
2016-Jun-07 09:15N 38°35' E 120°36'1015.1
2016-Jun-07 08:34N 38°36' E 120°23'3414.4
2016-Jun-07 06:10N 38°41' E 119°39'1014.2
2016-Jun-07 05:30N 38°42' E 119°27'8010.0
2016-Jun-06 21:31N 38°59' E 117°47'0 0.0
2016-Jun-06 20:31N 38°59' E 117°47'0 0.0
2016-Jun-06 18:25N 38°59' E 117°47'0 0.0
2016-Jun-06 17:31N 38°59' E 117°47'0 0.0
2016-Jun-06 16:25N 38°59' E 117°47'13 4.2
2016-Jun-06 13:21N 38°57' E 118°03'3 4.1
2016-Jun-06 12:31N 38°56' E 118°07'  
Track history (hours):
 
Tides and Currents Weather Stations Pressure Air Temp Water Temp Dewpoint Dewpoint Depression Visibility Wind Speed Wind Dir Waves Ship Positions

Continental Highway

Last reported at 2016-Jun-16 08:26 UTC. Time now 2016-Jun-26 20:58 UTC.
Position N 22°05' E 114°34'.
Warning: this ship's position is 10 days out of date.

Length 199.9 m; beam 32.2 m.

Type: Cargo ship. MMSI: 351223000.

Date/timePositionNaut miles runAvg speedWind from/ knotsBaromVisibWave heightAir tempDewpointWater temp
2016-Jun-16 08:26N 22°05' E 114°34'1516.4
2016-Jun-16 07:33N 22°07' E 114°19'1511.8
2016-Jun-16 06:17N 22°16' E 114°06'1 0.6
2016-Jun-16 04:31N 22°17' E 114°05'0 0.0
2016-Jun-15 23:31N 22°17' E 114°05'0 0.0
2016-Jun-15 22:31N 22°17' E 114°05'3 2.7
2016-Jun-15 21:34N 22°19' E 114°06'1 1.2
2016-Jun-15 20:33N 22°20' E 114°08'0 0.0
2016-Jun-15 19:33N 22°20' E 114°08'0 0.0
2016-Jun-15 18:33N 22°20' E 114°08'7 5.0
2016-Jun-15 17:12N 22°13' E 114°10'6 8.1
2016-Jun-15 16:28N 22°08' E 114°14'1514.9
2016-Jun-15 15:26N 22°06' E 113°58'1011.7
2016-Jun-15 14:33N 22°10' E 113°47'1211.6
2016-Jun-15 13:33N 22°22' E 113°47'25 8.2
2016-Jun-15 10:29N 22°45' E 113°38'6 6.3
2016-Jun-15 09:33N 22°50' E 113°35'9 8.9
2016-Jun-15 08:33N 22°59' E 113°32'2 1.8
2016-Jun-15 07:31N 23°01' E 113°32'0 0.0
2016-Jun-15 06:31N 23°01' E 113°32'0 0.0
2016-Jun-15 03:19N 23°01' E 113°32'0 0.0
2016-Jun-15 02:31N 23°01' E 113°32'0 0.0
2016-Jun-15 01:31N 23°01' E 113°32'6 5.9
2016-Jun-15 00:34N 22°55' E 113°34'11 9.8
2016-Jun-14 23:27N 22°45' E 113°39'1812.9
2016-Jun-14 22:05N 22°29' E 113°45'814.9
2016-Jun-14 21:33N 22°21' E 113°47'1313.1
2016-Jun-14 20:33N 22°08' E 113°48'  
2016-Jun-12 10:33N 31°15' E 121°59'1212.3
2016-Jun-12 09:32N 31°19' E 121°45'4 0.1
2016-Jun-11 08:29N 31°20' E 121°41'9 9.3
2016-Jun-11 07:33N 31°17' E 121°51'1111.0
2016-Jun-11 06:33N 31°14' E 122°03'40711.5
2016-Jun-09 19:11N 37°03' E 126°17'3 1.0
2016-Jun-09 16:09N 37°04' E 126°13'0 0.0
2016-Jun-09 15:09N 37°04' E 126°13'0 0.0
2016-Jun-09 14:15N 37°04' E 126°13'90 2.2
2016-Jun-07 21:09N 37°21' E 124°22'916.2
2016-Jun-07 20:33N 37°25' E 124°11'2116.8
2016-Jun-07 19:18N 37°34' E 123°47'1417.3
2016-Jun-07 18:30N 37°40' E 123°30'5317.1
2016-Jun-07 15:23N 38°01' E 122°29'1716.2
2016-Jun-07 14:20N 38°07' E 122°09'1616.2
2016-Jun-07 13:21N 38°13' E 121°50'1316.3
2016-Jun-07 12:33N 38°18' E 121°34'1716.8
2016-Jun-07 11:32N 38°25' E 121°14'1616.2
2016-Jun-07 10:33N 38°32' E 120°56'1612.4
2016-Jun-07 09:15N 38°35' E 120°36'1015.1
2016-Jun-07 08:34N 38°36' E 120°23'3414.4
2016-Jun-07 06:10N 38°41' E 119°39'1014.2
2016-Jun-07 05:30N 38°42' E 119°27'8010.0
2016-Jun-06 21:31N 38°59' E 117°47'0 0.0
2016-Jun-06 20:31N 38°59' E 117°47'0 0.0
2016-Jun-06 18:25N 38°59' E 117°47'0 0.0
2016-Jun-06 17:31N 38°59' E 117°47'0 0.0
2016-Jun-06 16:25N 38°59' E 117°47'13 4.2
2016-Jun-06 13:21N 38°57' E 118°03'3 4.1
2016-Jun-06 12:31N 38°56' E 118°07'  

Dump ship's entire track history